sensor_id;sensor_type;location;lat;lon;timestamp;temperature;humidity
74657;DHT22;63185;45.642;13.764;2022-11-11T00:00:36;15.00;67.20
74657;DHT22;63185;45.642;13.764;2022-11-11T00:03:02;14.90;67.60
74657;DHT22;63185;45.642;13.764;2022-11-11T00:05:28;14.90;67.10
74657;DHT22;63185;45.642;13.764;2022-11-11T00:07:56;15.00;67.20
74657;DHT22;63185;45.642;13.764;2022-11-11T00:10:28;15.00;66.70
74657;DHT22;63185;45.642;13.764;2022-11-11T00:13:03;15.10;66.30
74657;DHT22;63185;45.642;13.764;2022-11-11T00:15:36;15.10;66.00
74657;DHT22;63185;45.642;13.764;2022-11-11T00:18:02;15.10;66.30
74657;DHT22;63185;45.642;13.764;2022-11-11T00:20:46;15.20;66.40
74657;DHT22;63185;45.642;13.764;2022-11-11T00:23:30;15.20;65.60
74657;DHT22;63185;45.642;13.764;2022-11-11T00:26:14;15.20;66.00
74657;DHT22;63185;45.642;13.764;2022-11-11T00:28:40;15.20;66.40
74657;DHT22;63185;45.642;13.764;2022-11-11T00:31:09;15.10;66.00
74657;DHT22;63185;45.642;13.764;2022-11-11T00:33:35;15.20;66.00
74657;DHT22;63185;45.642;13.764;2022-11-11T00:36:02;15.10;66.00
74657;DHT22;63185;45.642;13.764;2022-11-11T00:38:28;15.10;65.90
74657;DHT22;63185;45.642;13.764;2022-11-11T00:41:17;15.10;66.10
74657;DHT22;63185;45.642;13.764;2022-11-11T00:43:44;15.10;65.60
74657;DHT22;63185;45.642;13.764;2022-11-11T00:46:11;15.20;65.70
74657;DHT22;63185;45.642;13.764;2022-11-11T00:48:56;15.10;65.30
74657;DHT22;63185;45.642;13.764;2022-11-11T00:51:40;15.10;65.60
74657;DHT22;63185;45.642;13.764;2022-11-11T00:54:07;15.20;65.20
74657;DHT22;63185;45.642;13.764;2022-11-11T00:56:33;15.20;65.00
74657;DHT22;63185;45.642;13.764;2022-11-11T00:59:01;15.20;64.90
74657;DHT22;63185;45.642;13.764;2022-11-11T01:01:27;15.20;64.70
74657;DHT22;63185;45.642;13.764;2022-11-11T01:03:53;15.20;64.90
74657;DHT22;63185;45.642;13.764;2022-11-11T01:06:18;15.20;64.90
74657;DHT22;63185;45.642;13.764;2022-11-11T01:08:44;15.20;64.60
74657;DHT22;63185;45.642;13.764;2022-11-11T01:11:15;15.30;64.10
74657;DHT22;63185;45.642;13.764;2022-11-11T01:13:42;15.30;64.10
74657;DHT22;63185;45.642;13.764;2022-11-11T01:16:12;15.30;63.80
74657;DHT22;63185;45.642;13.764;2022-11-11T01:18:38;15.30;64.00
74657;DHT22;63185;45.642;13.764;2022-11-11T01:21:10;15.30;64.40
74657;DHT22;63185;45.642;13.764;2022-11-11T01:23:38;15.30;64.30
74657;DHT22;63185;45.642;13.764;2022-11-11T01:26:15;15.20;64.10
74657;DHT22;63185;45.642;13.764;2022-11-11T01:28:41;15.20;63.80
74657;DHT22;63185;45.642;13.764;2022-11-11T01:31:10;15.20;64.70
74657;DHT22;63185;45.642;13.764;2022-11-11T01:33:36;15.30;63.70
74657;DHT22;63185;45.642;13.764;2022-11-11T01:36:14;15.30;63.80
74657;DHT22;63185;45.642;13.764;2022-11-11T01:38:40;15.30;63.90
74657;DHT22;63185;45.642;13.764;2022-11-11T01:41:15;15.30;64.30
74657;DHT22;63185;45.642;13.764;2022-11-11T01:46:49;15.10;65.10
74657;DHT22;63185;45.642;13.764;2022-11-11T01:49:38;14.90;65.50
74657;DHT22;63185;45.642;13.764;2022-11-11T01:52:27;14.80;66.30
74657;DHT22;63185;45.642;13.764;2022-11-11T01:59:57;14.70;66.90
74657;DHT22;63185;45.642;13.764;2022-11-11T02:02:47;14.70;67.50
74657;DHT22;63185;45.642;13.764;2022-11-11T02:05:14;14.60;67.70
74657;DHT22;63185;45.642;13.764;2022-11-11T02:08:07;14.60;68.20
74657;DHT22;63185;45.642;13.764;2022-11-11T02:10:34;14.50;68.30
74657;DHT22;63185;45.642;13.764;2022-11-11T02:12:59;14.50;68.10
74657;DHT22;63185;45.642;13.764;2022-11-11T02:15:44;14.40;68.00
74657;DHT22;63185;45.642;13.764;2022-11-11T02:18:10;14.40;67.90
74657;DHT22;63185;45.642;13.764;2022-11-11T02:20:42;14.40;67.10
74657;DHT22;63185;45.642;13.764;2022-11-11T02:23:16;14.40;66.60
74657;DHT22;63185;45.642;13.764;2022-11-11T02:25:45;14.50;67.40
74657;DHT22;63185;45.642;13.764;2022-11-11T02:28:13;14.50;67.40
74657;DHT22;63185;45.642;13.764;2022-11-11T02:30:40;14.50;66.60
74657;DHT22;63185;45.642;13.764;2022-11-11T02:33:06;14.50;66.90
74657;DHT22;63185;45.642;13.764;2022-11-11T02:35:37;14.50;66.90
74657;DHT22;63185;45.642;13.764;2022-11-11T02:38:05;14.50;66.60
74657;DHT22;63185;45.642;13.764;2022-11-11T02:40:41;14.50;66.80
74657;DHT22;63185;45.642;13.764;2022-11-11T02:43:28;14.50;67.20
74657;DHT22;63185;45.642;13.764;2022-11-11T02:45:54;14.40;67.50
74657;DHT22;63185;45.642;13.764;2022-11-11T02:48:19;14.50;67.90
74657;DHT22;63185;45.642;13.764;2022-11-11T02:50:45;14.40;68.00
74657;DHT22;63185;45.642;13.764;2022-11-11T02:53:11;14.40;68.40
74657;DHT22;63185;45.642;13.764;2022-11-11T02:55:36;14.30;68.70
74657;DHT22;63185;45.642;13.764;2022-11-11T02:58:02;14.20;68.90
74657;DHT22;63185;45.642;13.764;2022-11-11T03:00:28;14.20;69.10
74657;DHT22;63185;45.642;13.764;2022-11-11T03:02:54;14.20;68.80
74657;DHT22;63185;45.642;13.764;2022-11-11T03:05:20;14.10;68.70
74657;DHT22;63185;45.642;13.764;2022-11-11T03:07:46;14.10;69.50
74657;DHT22;63185;45.642;13.764;2022-11-11T03:10:11;14.10;69.70
74657;DHT22;63185;45.642;13.764;2022-11-11T03:12:37;14.10;68.90
74657;DHT22;63185;45.642;13.764;2022-11-11T03:15:03;14.10;69.00
74657;DHT22;63185;45.642;13.764;2022-11-11T03:17:29;14.00;69.00
74657;DHT22;63185;45.642;13.764;2022-11-11T03:20:12;14.00;69.10
74657;DHT22;63185;45.642;13.764;2022-11-11T03:23:10;14.00;68.90
74657;DHT22;63185;45.642;13.764;2022-11-11T03:25:44;14.10;68.80
74657;DHT22;63185;45.642;13.764;2022-11-11T03:28:14;14.10;68.50
74657;DHT22;63185;45.642;13.764;2022-11-11T03:30:41;14.10;68.60
74657;DHT22;63185;45.642;13.764;2022-11-11T03:33:07;14.20;68.30
74657;DHT22;63185;45.642;13.764;2022-11-11T03:35:34;14.10;68.50
74657;DHT22;63185;45.642;13.764;2022-11-11T03:38:00;14.10;68.70
74657;DHT22;63185;45.642;13.764;2022-11-11T03:40:44;14.00;68.80
74657;DHT22;63185;45.642;13.764;2022-11-11T03:43:12;14.00;68.90
74657;DHT22;63185;45.642;13.764;2022-11-11T03:45:38;14.00;68.80
74657;DHT22;63185;45.642;13.764;2022-11-11T03:48:04;13.90;68.90
74657;DHT22;63185;45.642;13.764;2022-11-11T03:50:30;13.90;69.10
74657;DHT22;63185;45.642;13.764;2022-11-11T03:52:56;13.90;69.20
74657;DHT22;63185;45.642;13.764;2022-11-11T03:55:22;13.90;69.00
74657;DHT22;63185;45.642;13.764;2022-11-11T03:57:47;13.90;69.00
74657;DHT22;63185;45.642;13.764;2022-11-11T04:00:18;13.90;68.80
74657;DHT22;63185;45.642;13.764;2022-11-11T04:02:45;13.90;68.30
74657;DHT22;63185;45.642;13.764;2022-11-11T04:05:29;14.00;68.60
74657;DHT22;63185;45.642;13.764;2022-11-11T04:08:15;14.00;68.40
74657;DHT22;63185;45.642;13.764;2022-11-11T04:11:06;14.00;68.60
74657;DHT22;63185;45.642;13.764;2022-11-11T04:13:34;14.00;68.60
74657;DHT22;63185;45.642;13.764;2022-11-11T04:16:19;14.00;68.40
74657;DHT22;63185;45.642;13.764;2022-11-11T04:18:44;14.00;68.40
74657;DHT22;63185;45.642;13.764;2022-11-11T04:21:28;13.90;68.40
74657;DHT22;63185;45.642;13.764;2022-11-11T04:24:11;13.90;68.00
74657;DHT22;63185;45.642;13.764;2022-11-11T04:26:57;14.00;68.10
74657;DHT22;63185;45.642;13.764;2022-11-11T04:29:24;14.10;67.80
74657;DHT22;63185;45.642;13.764;2022-11-11T04:31:53;14.10;67.70
74657;DHT22;63185;45.642;13.764;2022-11-11T04:34:39;14.10;67.50
74657;DHT22;63185;45.642;13.764;2022-11-11T04:37:05;14.20;67.50
74657;DHT22;63185;45.642;13.764;2022-11-11T04:39:30;14.10;67.20
74657;DHT22;63185;45.642;13.764;2022-11-11T04:42:15;14.10;67.50
74657;DHT22;63185;45.642;13.764;2022-11-11T04:44:40;14.10;67.70
74657;DHT22;63185;45.642;13.764;2022-11-11T04:47:25;14.10;68.10
74657;DHT22;63185;45.642;13.764;2022-11-11T04:49:50;14.10;68.10
74657;DHT22;63185;45.642;13.764;2022-11-11T04:52:16;14.10;68.30
74657;DHT22;63185;45.642;13.764;2022-11-11T04:54:54;14.10;68.20
74657;DHT22;63185;45.642;13.764;2022-11-11T04:57:46;14.00;68.20
74657;DHT22;63185;45.642;13.764;2022-11-11T05:00:17;14.00;68.10
74657;DHT22;63185;45.642;13.764;2022-11-11T05:02:44;13.90;68.20
74657;DHT22;63185;45.642;13.764;2022-11-11T05:05:29;13.90;68.20
74657;DHT22;63185;45.642;13.764;2022-11-11T05:08:18;14.00;68.00
74657;DHT22;63185;45.642;13.764;2022-11-11T05:11:02;14.10;67.90
74657;DHT22;63185;45.642;13.764;2022-11-11T05:13:28;14.10;67.40
74657;DHT22;63185;45.642;13.764;2022-11-11T05:16:17;14.20;66.80
74657;DHT22;63185;45.642;13.764;2022-11-11T05:19:03;14.20;66.80
74657;DHT22;63185;45.642;13.764;2022-11-11T05:21:52;14.30;66.60
74657;DHT22;63185;45.642;13.764;2022-11-11T05:24:20;14.20;66.90
74657;DHT22;63185;45.642;13.764;2022-11-11T05:27:04;14.20;66.70
74657;DHT22;63185;45.642;13.764;2022-11-11T05:29:30;14.20;66.70
74657;DHT22;63185;45.642;13.764;2022-11-11T05:31:55;14.20;66.90
74657;DHT22;63185;45.642;13.764;2022-11-11T05:34:21;14.20;66.60
74657;DHT22;63185;45.642;13.764;2022-11-11T05:36:47;14.20;66.50
74657;DHT22;63185;45.642;13.764;2022-11-11T05:39:12;14.20;66.10
74657;DHT22;63185;45.642;13.764;2022-11-11T05:41:38;14.20;66.00
74657;DHT22;63185;45.642;13.764;2022-11-11T05:44:03;14.20;66.10
74657;DHT22;63185;45.642;13.764;2022-11-11T05:46:29;14.30;66.00
74657;DHT22;63185;45.642;13.764;2022-11-11T05:48:55;14.30;66.00
74657;DHT22;63185;45.642;13.764;2022-11-11T05:51:42;14.30;65.90
74657;DHT22;63185;45.642;13.764;2022-11-11T05:54:08;14.30;65.40
74657;DHT22;63185;45.642;13.764;2022-11-11T05:56:34;14.20;65.80
74657;DHT22;63185;45.642;13.764;2022-11-11T05:58:59;14.30;65.90
74657;DHT22;63185;45.642;13.764;2022-11-11T06:01:25;14.40;65.70
74657;DHT22;63185;45.642;13.764;2022-11-11T06:03:50;14.40;66.00
74657;DHT22;63185;45.642;13.764;2022-11-11T06:06:17;14.40;65.70
74657;DHT22;63185;45.642;13.764;2022-11-11T06:08:42;14.40;65.80
74657;DHT22;63185;45.642;13.764;2022-11-11T06:11:08;14.40;65.90
74657;DHT22;63185;45.642;13.764;2022-11-11T06:13:34;14.40;65.90
74657;DHT22;63185;45.642;13.764;2022-11-11T06:16:00;14.40;65.50
74657;DHT22;63185;45.642;13.764;2022-11-11T06:18:26;14.40;65.20
74657;DHT22;63185;45.642;13.764;2022-11-11T06:20:53;14.50;65.10
74657;DHT22;63185;45.642;13.764;2022-11-11T06:23:19;14.50;65.10
74657;DHT22;63185;45.642;13.764;2022-11-11T06:25:45;14.50;65.20
74657;DHT22;63185;45.642;13.764;2022-11-11T06:28:29;14.50;65.00
74657;DHT22;63185;45.642;13.764;2022-11-11T06:30:55;14.50;65.30
74657;DHT22;63185;45.642;13.764;2022-11-11T06:33:20;14.50;65.30
74657;DHT22;63185;45.642;13.764;2022-11-11T06:35:47;14.50;65.60
74657;DHT22;63185;45.642;13.764;2022-11-11T06:38:12;14.40;65.70
74657;DHT22;63185;45.642;13.764;2022-11-11T06:40:39;14.50;65.40
74657;DHT22;63185;45.642;13.764;2022-11-11T06:43:06;14.50;65.30
74657;DHT22;63185;45.642;13.764;2022-11-11T06:45:32;14.50;65.40
74657;DHT22;63185;45.642;13.764;2022-11-11T06:47:59;14.50;65.40
74657;DHT22;63185;45.642;13.764;2022-11-11T06:50:25;14.60;65.20
74657;DHT22;63185;45.642;13.764;2022-11-11T06:52:51;14.60;65.10
74657;DHT22;63185;45.642;13.764;2022-11-11T06:55:17;14.60;65.20
74657;DHT22;63185;45.642;13.764;2022-11-11T06:57:42;14.60;65.20
74657;DHT22;63185;45.642;13.764;2022-11-11T07:00:09;14.60;65.00
74657;DHT22;63185;45.642;13.764;2022-11-11T07:02:35;14.70;64.80
74657;DHT22;63185;45.642;13.764;2022-11-11T07:05:01;14.70;64.60
74657;DHT22;63185;45.642;13.764;2022-11-11T07:07:27;14.70;65.00
74657;DHT22;63185;45.642;13.764;2022-11-11T07:09:53;14.60;65.30
74657;DHT22;63185;45.642;13.764;2022-11-11T07:12:20;14.80;65.30
74657;DHT22;63185;45.642;13.764;2022-11-11T07:14:46;14.70;65.70
74657;DHT22;63185;45.642;13.764;2022-11-11T07:17:12;14.80;65.30
74657;DHT22;63185;45.642;13.764;2022-11-11T07:19:37;15.00;64.20
74657;DHT22;63185;45.642;13.764;2022-11-11T07:22:03;15.10;63.60
74657;DHT22;63185;45.642;13.764;2022-11-11T07:24:30;15.10;64.00
74657;DHT22;63185;45.642;13.764;2022-11-11T07:26:55;15.20;64.50
74657;DHT22;63185;45.642;13.764;2022-11-11T07:29:21;15.20;64.20
74657;DHT22;63185;45.642;13.764;2022-11-11T07:31:47;15.30;64.00
74657;DHT22;63185;45.642;13.764;2022-11-11T07:34:13;15.40;63.80
74657;DHT22;63185;45.642;13.764;2022-11-11T07:36:38;15.50;63.40
74657;DHT22;63185;45.642;13.764;2022-11-11T07:39:04;15.60;62.70
74657;DHT22;63185;45.642;13.764;2022-11-11T07:41:29;15.70;62.00
74657;DHT22;63185;45.642;13.764;2022-11-11T07:43:55;15.80;62.00
74657;DHT22;63185;45.642;13.764;2022-11-11T07:46:22;15.90;61.20
74657;DHT22;63185;45.642;13.764;2022-11-11T07:48:47;16.00;60.90
74657;DHT22;63185;45.642;13.764;2022-11-11T07:51:13;16.10;60.70
74657;DHT22;63185;45.642;13.764;2022-11-11T07:53:39;16.30;60.10
74657;DHT22;63185;45.642;13.764;2022-11-11T07:56:04;16.40;59.90
74657;DHT22;63185;45.642;13.764;2022-11-11T07:58:30;16.60;59.10
74657;DHT22;63185;45.642;13.764;2022-11-11T08:00:58;16.60;58.90
74657;DHT22;63185;45.642;13.764;2022-11-11T08:03:25;16.60;59.10
74657;DHT22;63185;45.642;13.764;2022-11-11T08:05:50;16.70;58.60
74657;DHT22;63185;45.642;13.764;2022-11-11T08:08:16;16.70;58.30
74657;DHT22;63185;45.642;13.764;2022-11-11T08:10:42;16.80;58.30
74657;DHT22;63185;45.642;13.764;2022-11-11T08:13:10;16.80;58.50
74657;DHT22;63185;45.642;13.764;2022-11-11T08:15:54;16.90;58.60
74657;DHT22;63185;45.642;13.764;2022-11-11T08:18:20;17.00;58.50
74657;DHT22;63185;45.642;13.764;2022-11-11T08:20:46;17.00;58.50
74657;DHT22;63185;45.642;13.764;2022-11-11T08:23:11;17.00;58.70
74657;DHT22;63185;45.642;13.764;2022-11-11T08:25:39;16.80;58.80
74657;DHT22;63185;45.642;13.764;2022-11-11T08:28:05;16.80;58.30
74657;DHT22;63185;45.642;13.764;2022-11-11T08:30:31;16.90;58.40
74657;DHT22;63185;45.642;13.764;2022-11-11T08:33:02;16.90;58.10
74657;DHT22;63185;45.642;13.764;2022-11-11T08:35:29;16.90;57.70
74657;DHT22;63185;45.642;13.764;2022-11-11T08:37:55;17.00;58.30
74657;DHT22;63185;45.642;13.764;2022-11-11T08:40:21;17.10;57.70
74657;DHT22;63185;45.642;13.764;2022-11-11T08:42:46;17.20;57.10
74657;DHT22;63185;45.642;13.764;2022-11-11T08:45:13;17.20;56.70
74657;DHT22;63185;45.642;13.764;2022-11-11T08:47:39;17.30;56.90
74657;DHT22;63185;45.642;13.764;2022-11-11T08:50:05;17.40;57.20
74657;DHT22;63185;45.642;13.764;2022-11-11T08:52:31;17.40;56.70
74657;DHT22;63185;45.642;13.764;2022-11-11T08:54:57;17.50;56.90
74657;DHT22;63185;45.642;13.764;2022-11-11T08:57:25;17.60;56.10
74657;DHT22;63185;45.642;13.764;2022-11-11T08:59:50;17.60;56.30
74657;DHT22;63185;45.642;13.764;2022-11-11T09:02:16;17.60;56.10
74657;DHT22;63185;45.642;13.764;2022-11-11T09:04:42;17.90;55.80
74657;DHT22;63185;45.642;13.764;2022-11-11T09:07:09;18.00;55.60
74657;DHT22;63185;45.642;13.764;2022-11-11T09:09:35;18.10;55.70
74657;DHT22;63185;45.642;13.764;2022-11-11T09:12:01;18.20;55.50
74657;DHT22;63185;45.642;13.764;2022-11-11T09:14:27;18.30;54.30
74657;DHT22;63185;45.642;13.764;2022-11-11T09:16:53;18.50;54.50
74657;DHT22;63185;45.642;13.764;2022-11-11T09:19:19;18.50;54.20
74657;DHT22;63185;45.642;13.764;2022-11-11T09:21:44;18.60;54.10
74657;DHT22;63185;45.642;13.764;2022-11-11T09:24:10;18.50;53.60
74657;DHT22;63185;45.642;13.764;2022-11-11T09:26:36;18.40;53.20
74657;DHT22;63185;45.642;13.764;2022-11-11T09:29:01;18.50;53.40
74657;DHT22;63185;45.642;13.764;2022-11-11T09:31:27;18.60;53.20
74657;DHT22;63185;45.642;13.764;2022-11-11T09:33:53;18.60;53.20
74657;DHT22;63185;45.642;13.764;2022-11-11T09:36:19;18.60;54.20
74657;DHT22;63185;45.642;13.764;2022-11-11T09:38:45;18.70;53.70
74657;DHT22;63185;45.642;13.764;2022-11-11T09:41:20;18.80;53.20
74657;DHT22;63185;45.642;13.764;2022-11-11T09:43:57;18.80;52.90
74657;DHT22;63185;45.642;13.764;2022-11-11T09:47:03;19.00;52.80
74657;DHT22;63185;45.642;13.764;2022-11-11T09:50:12;19.10;52.30
74657;DHT22;63185;45.642;13.764;2022-11-11T10:00:05;19.60;53.10
74657;DHT22;63185;45.642;13.764;2022-11-11T10:05:08;19.70;50.50
74657;DHT22;63185;45.642;13.764;2022-11-11T10:12:50;19.60;49.40
74657;DHT22;63185;45.642;13.764;2022-11-11T10:15:17;19.40;50.70
74657;DHT22;63185;45.642;13.764;2022-11-11T10:20:27;19.60;50.40
74657;DHT22;63185;45.642;13.764;2022-11-11T10:23:14;19.80;49.90
74657;DHT22;63185;45.642;13.764;2022-11-11T10:26:03;19.90;49.80
74657;DHT22;63185;45.642;13.764;2022-11-11T10:28:34;20.00;50.20
74657;DHT22;63185;45.642;13.764;2022-11-11T10:31:04;20.10;50.40
74657;DHT22;63185;45.642;13.764;2022-11-11T10:33:37;20.10;49.90
74657;DHT22;63185;45.642;13.764;2022-11-11T10:36:13;19.90;49.70
74657;DHT22;63185;45.642;13.764;2022-11-11T10:38:50;19.80;50.40
74657;DHT22;63185;45.642;13.764;2022-11-11T10:41:56;19.80;49.90
74657;DHT22;63185;45.642;13.764;2022-11-11T10:44:26;19.90;50.80
74657;DHT22;63185;45.642;13.764;2022-11-11T10:46:57;19.80;51.00
74657;DHT22;63185;45.642;13.764;2022-11-11T10:49:25;19.90;49.60
74657;DHT22;63185;45.642;13.764;2022-11-11T10:51:58;19.70;50.90
74657;DHT22;63185;45.642;13.764;2022-11-11T10:54:57;19.60;50.80
74657;DHT22;63185;45.642;13.764;2022-11-11T10:57:30;19.60;51.50
74657;DHT22;63185;45.642;13.764;2022-11-11T11:00:02;19.60;51.00
74657;DHT22;63185;45.642;13.764;2022-11-11T11:05:33;19.60;51.60
74657;DHT22;63185;45.642;13.764;2022-11-11T11:08:06;19.70;50.90
74657;DHT22;63185;45.642;13.764;2022-11-11T11:10:41;19.80;51.10
74657;DHT22;63185;45.642;13.764;2022-11-11T11:13:15;19.70;51.00
74657;DHT22;63185;45.642;13.764;2022-11-11T11:15:46;19.70;51.50
74657;DHT22;63185;45.642;13.764;2022-11-11T11:18:15;19.80;51.90
74657;DHT22;63185;45.642;13.764;2022-11-11T11:20:59;20.00;50.50
74657;DHT22;63185;45.642;13.764;2022-11-11T11:23:44;20.00;50.10
74657;DHT22;63185;45.642;13.764;2022-11-11T11:26:12;20.00;50.40
74657;DHT22;63185;45.642;13.764;2022-11-11T11:28:58;20.00;50.80
74657;DHT22;63185;45.642;13.764;2022-11-11T11:31:36;19.80;50.60
74657;DHT22;63185;45.642;13.764;2022-11-11T11:34:02;19.80;50.60
74657;DHT22;63185;45.642;13.764;2022-11-11T11:36:28;19.90;50.40
74657;DHT22;63185;45.642;13.764;2022-11-11T11:38:54;20.10;50.40
74657;DHT22;63185;45.642;13.764;2022-11-11T11:41:40;20.00;50.00
74657;DHT22;63185;45.642;13.764;2022-11-11T11:44:29;20.10;49.90
74657;DHT22;63185;45.642;13.764;2022-11-11T11:55:37;20.30;48.80
74657;DHT22;63185;45.642;13.764;2022-11-11T12:01:11;20.10;49.90
74657;DHT22;63185;45.642;13.764;2022-11-11T12:04:13;20.00;49.80
74657;DHT22;63185;45.642;13.764;2022-11-11T12:09:20;20.10;49.80
74657;DHT22;63185;45.642;13.764;2022-11-11T12:14:47;20.40;48.30
74657;DHT22;63185;45.642;13.764;2022-11-11T12:17:47;20.40;48.70
74657;DHT22;63185;45.642;13.764;2022-11-11T12:20:27;20.40;48.30
74657;DHT22;63185;45.642;13.764;2022-11-11T12:26:17;20.60;47.00
74657;DHT22;63185;45.642;13.764;2022-11-11T12:37:37;20.60;46.60
74657;DHT22;63185;45.642;13.764;2022-11-11T12:40:14;20.80;46.60
74657;DHT22;63185;45.642;13.764;2022-11-11T12:43:08;20.90;47.00
74657;DHT22;63185;45.642;13.764;2022-11-11T13:02:08;21.10;45.20
74657;DHT22;63185;45.642;13.764;2022-11-11T13:05:04;21.10;45.60
74657;DHT22;63185;45.642;13.764;2022-11-11T13:15:26;21.00;46.00
74657;DHT22;63185;45.642;13.764;2022-11-11T13:17:53;21.00;45.10
74657;DHT22;63185;45.642;13.764;2022-11-11T13:23:13;20.90;46.50
74657;DHT22;63185;45.642;13.764;2022-11-11T13:25:44;20.90;45.30
74657;DHT22;63185;45.642;13.764;2022-11-11T13:33:41;20.70;46.80
74657;DHT22;63185;45.642;13.764;2022-11-11T13:36:09;20.60;47.00
74657;DHT22;63185;45.642;13.764;2022-11-11T13:38:51;20.60;47.10
74657;DHT22;63185;45.642;13.764;2022-11-11T13:41:39;20.60;46.60
74657;DHT22;63185;45.642;13.764;2022-11-11T13:44:08;20.50;46.20
74657;DHT22;63185;45.642;13.764;2022-11-11T13:46:43;20.30;47.40
74657;DHT22;63185;45.642;13.764;2022-11-11T13:49:23;20.30;47.60
74657;DHT22;63185;45.642;13.764;2022-11-11T13:52:01;20.20;47.80
74657;DHT22;63185;45.642;13.764;2022-11-11T13:57:02;20.00;48.10
74657;DHT22;63185;45.642;13.764;2022-11-11T13:59:34;19.90;47.90
74657;DHT22;63185;45.642;13.764;2022-11-11T14:02:25;19.80;47.70
74657;DHT22;63185;45.642;13.764;2022-11-11T14:05:16;19.70;48.40
74657;DHT22;63185;45.642;13.764;2022-11-11T14:15:37;19.70;48.60
74657;DHT22;63185;45.642;13.764;2022-11-11T14:20:42;19.70;48.50
74657;DHT22;63185;45.642;13.764;2022-11-11T14:25:51;20.10;47.20
74657;DHT22;63185;45.642;13.764;2022-11-11T14:28:54;20.30;47.10
74657;DHT22;63185;45.642;13.764;2022-11-11T14:41:51;22.30;44.10
74657;DHT22;63185;45.642;13.764;2022-11-11T14:44:38;22.50;43.80
74657;DHT22;63185;45.642;13.764;2022-11-11T14:49:47;22.90;42.50
74657;DHT22;63185;45.642;13.764;2022-11-11T14:52:36;22.80;42.90
74657;DHT22;63185;45.642;13.764;2022-11-11T14:55:12;22.80;42.80
74657;DHT22;63185;45.642;13.764;2022-11-11T14:57:54;22.70;43.60
74657;DHT22;63185;45.642;13.764;2022-11-11T15:00:23;22.30;44.20
74657;DHT22;63185;45.642;13.764;2022-11-11T15:03:09;22.00;44.90
74657;DHT22;63185;45.642;13.764;2022-11-11T15:06:18;21.50;46.20
74657;DHT22;63185;45.642;13.764;2022-11-11T15:12:04;20.20;48.70
74657;DHT22;63185;45.642;13.764;2022-11-11T15:23:11;18.60;53.70
74657;DHT22;63185;45.642;13.764;2022-11-11T15:25:52;18.40;54.40
74657;DHT22;63185;45.642;13.764;2022-11-11T15:28:58;18.30;55.20
74657;DHT22;63185;45.642;13.764;2022-11-11T15:31:49;18.10;56.40
74657;DHT22;63185;45.642;13.764;2022-11-11T15:34:40;18.10;56.40
74657;DHT22;63185;45.642;13.764;2022-11-11T15:37:13;17.90;57.70
74657;DHT22;63185;45.642;13.764;2022-11-11T15:39:44;17.70;56.70
74657;DHT22;63185;45.642;13.764;2022-11-11T15:42:12;17.60;57.10
74657;DHT22;63185;45.642;13.764;2022-11-11T15:44:43;17.40;57.90
74657;DHT22;63185;45.642;13.764;2022-11-11T15:47:12;17.40;58.30
74657;DHT22;63185;45.642;13.764;2022-11-11T15:49:39;17.40;58.90
74657;DHT22;63185;45.642;13.764;2022-11-11T15:54:50;17.20;59.10
74657;DHT22;63185;45.642;13.764;2022-11-11T15:59:52;17.10;59.90
74657;DHT22;63185;45.642;13.764;2022-11-11T16:02:23;17.10;59.40
74657;DHT22;63185;45.642;13.764;2022-11-11T16:05:30;17.10;59.00
74657;DHT22;63185;45.642;13.764;2022-11-11T16:08:01;17.00;59.50
74657;DHT22;63185;45.642;13.764;2022-11-11T16:10:36;16.90;60.20
74657;DHT22;63185;45.642;13.764;2022-11-11T16:15:45;16.80;60.00
74657;DHT22;63185;45.642;13.764;2022-11-11T16:18:18;16.70;59.90
74657;DHT22;63185;45.642;13.764;2022-11-11T16:21:05;16.60;60.20
74657;DHT22;63185;45.642;13.764;2022-11-11T16:23:32;16.60;60.50
74657;DHT22;63185;45.642;13.764;2022-11-11T16:25:58;16.50;60.10
74657;DHT22;63185;45.642;13.764;2022-11-11T16:28:35;16.40;60.60
74657;DHT22;63185;45.642;13.764;2022-11-11T16:33:46;16.40;58.90
74657;DHT22;63185;45.642;13.764;2022-11-11T16:36:12;16.40;58.10
74657;DHT22;63185;45.642;13.764;2022-11-11T16:38:38;16.50;58.00
74657;DHT22;63185;45.642;13.764;2022-11-11T16:41:26;16.60;57.90
74657;DHT22;63185;45.642;13.764;2022-11-11T16:43:55;16.50;57.00
74657;DHT22;63185;45.642;13.764;2022-11-11T16:49:18;16.50;58.10
74657;DHT22;63185;45.642;13.764;2022-11-11T16:51:46;16.40;57.60
74657;DHT22;63185;45.642;13.764;2022-11-11T16:54:19;16.40;57.70
74657;DHT22;63185;45.642;13.764;2022-11-11T16:56:54;16.40;56.90
74657;DHT22;63185;45.642;13.764;2022-11-11T16:59:36;16.40;56.60
74657;DHT22;63185;45.642;13.764;2022-11-11T17:02:15;16.40;57.20
74657;DHT22;63185;45.642;13.764;2022-11-11T17:04:45;16.40;57.20
74657;DHT22;63185;45.642;13.764;2022-11-11T17:07:28;16.40;57.20
74657;DHT22;63185;45.642;13.764;2022-11-11T17:12:34;16.40;56.90
74657;DHT22;63185;45.642;13.764;2022-11-11T17:15:05;16.40;56.20
74657;DHT22;63185;45.642;13.764;2022-11-11T17:17:33;16.40;56.80
74657;DHT22;63185;45.642;13.764;2022-11-11T17:20:02;16.50;55.10
74657;DHT22;63185;45.642;13.764;2022-11-11T17:22:28;16.60;54.50
74657;DHT22;63185;45.642;13.764;2022-11-11T17:24:54;16.60;54.60
74657;DHT22;63185;45.642;13.764;2022-11-11T17:27:19;16.60;54.40
74657;DHT22;63185;45.642;13.764;2022-11-11T17:29:45;16.60;55.00
74657;DHT22;63185;45.642;13.764;2022-11-11T17:32:12;16.60;56.30
74657;DHT22;63185;45.642;13.764;2022-11-11T17:34:38;16.50;56.60
74657;DHT22;63185;45.642;13.764;2022-11-11T17:37:04;16.50;56.90
74657;DHT22;63185;45.642;13.764;2022-11-11T17:39:29;16.40;57.90
74657;DHT22;63185;45.642;13.764;2022-11-11T17:41:55;16.40;57.50
74657;DHT22;63185;45.642;13.764;2022-11-11T17:44:21;16.40;58.50
74657;DHT22;63185;45.642;13.764;2022-11-11T17:46:47;16.20;58.00
74657;DHT22;63185;45.642;13.764;2022-11-11T17:49:12;16.20;58.60
74657;DHT22;63185;45.642;13.764;2022-11-11T17:51:38;16.20;58.90
74657;DHT22;63185;45.642;13.764;2022-11-11T17:54:06;16.10;59.10
74657;DHT22;63185;45.642;13.764;2022-11-11T17:56:32;16.10;58.70
74657;DHT22;63185;45.642;13.764;2022-11-11T17:58:58;16.00;58.80
74657;DHT22;63185;45.642;13.764;2022-11-11T18:01:24;16.00;58.90
74657;DHT22;63185;45.642;13.764;2022-11-11T18:03:54;16.00;57.80
74657;DHT22;63185;45.642;13.764;2022-11-11T18:06:20;16.00;58.30
74657;DHT22;63185;45.642;13.764;2022-11-11T18:08:46;15.90;58.00
74657;DHT22;63185;45.642;13.764;2022-11-11T18:11:11;16.00;58.20